sensor_id;sensor_type;location;lat;lon;timestamp;pressure;altitude;pressure_sealevel;temperature;humidity
81155;BME280;70631;50.436;7.826;2023-07-02T00:01:02;98428.44;;;17.81;76.02
81155;BME280;70631;50.436;7.826;2023-07-02T00:03:27;98428.66;;;17.80;75.71
81155;BME280;70631;50.436;7.826;2023-07-02T00:05:52;98429.03;;;17.77;75.71
81155;BME280;70631;50.436;7.826;2023-07-02T00:08:20;98430.72;;;17.71;75.47
81155;BME280;70631;50.436;7.826;2023-07-02T00:10:45;98437.34;;;17.68;75.68
81155;BME280;70631;50.436;7.826;2023-07-02T00:13:10;98429.66;;;17.65;75.47
81155;BME280;70631;50.436;7.826;2023-07-02T00:15:35;98431.53;;;17.65;75.36
81155;BME280;70631;50.436;7.826;2023-07-02T00:18:01;98424.47;;;17.57;75.84
81155;BME280;70631;50.436;7.826;2023-07-02T00:20:26;98430.88;;;17.56;75.63
81155;BME280;70631;50.436;7.826;2023-07-02T00:22:51;98424.47;;;17.51;75.76
81155;BME280;70631;50.436;7.826;2023-07-02T00:25:20;98429.22;;;17.42;75.56
81155;BME280;70631;50.436;7.826;2023-07-02T00:27:45;98424.88;;;17.41;75.32
81155;BME280;70631;50.436;7.826;2023-07-02T00:30:11;98426.34;;;17.37;75.57
81155;BME280;70631;50.436;7.826;2023-07-02T00:32:36;98424.69;;;17.36;75.55
81155;BME280;70631;50.436;7.826;2023-07-02T00:35:01;98429.03;;;17.37;75.66
81155;BME280;70631;50.436;7.826;2023-07-02T00:37:27;98433.59;;;17.36;75.61
81155;BME280;70631;50.436;7.826;2023-07-02T00:39:52;98424.84;;;17.34;75.43
81155;BME280;70631;50.436;7.826;2023-07-02T00:42:17;98438.94;;;17.30;75.53
81155;BME280;70631;50.436;7.826;2023-07-02T00:44:43;98437.28;;;17.29;75.31
81155;BME280;70631;50.436;7.826;2023-07-02T00:47:09;98424.84;;;17.28;75.33
81155;BME280;70631;50.436;7.826;2023-07-02T00:49:35;98431.91;;;17.29;75.18
81155;BME280;70631;50.436;7.826;2023-07-02T00:52:00;98423.00;;;17.28;75.20
81155;BME280;70631;50.436;7.826;2023-07-02T00:54:28;98419.47;;;17.28;75.38
81155;BME280;70631;50.436;7.826;2023-07-02T00:56:53;98412.00;;;17.30;75.58
81155;BME280;70631;50.436;7.826;2023-07-02T00:59:18;98426.09;;;17.32;75.27
81155;BME280;70631;50.436;7.826;2023-07-02T01:01:44;98421.75;;;17.31;74.99
81155;BME280;70631;50.436;7.826;2023-07-02T01:04:16;98428.16;;;17.23;75.09
81155;BME280;70631;50.436;7.826;2023-07-02T01:06:42;98426.31;;;17.17;75.10
81155;BME280;70631;50.436;7.826;2023-07-02T01:09:09;98426.72;;;17.14;75.31
81155;BME280;70631;50.436;7.826;2023-07-02T01:11:43;98417.38;;;17.10;75.39
81155;BME280;70631;50.436;7.826;2023-07-02T01:14:16;98429.78;;;17.11;75.29
81155;BME280;70631;50.436;7.826;2023-07-02T01:16:43;98426.06;;;17.12;75.55
81155;BME280;70631;50.436;7.826;2023-07-02T01:19:21;98424.59;;;17.09;75.63
81155;BME280;70631;50.436;7.826;2023-07-02T01:21:47;98417.59;;;17.15;75.49
81155;BME280;70631;50.436;7.826;2023-07-02T01:24:14;98416.13;;;17.13;75.32
81155;BME280;70631;50.436;7.826;2023-07-02T01:26:40;98419.47;;;17.15;75.55
81155;BME280;70631;50.436;7.826;2023-07-02T01:29:19;98418.41;;;17.09;75.56
81155;BME280;70631;50.436;7.826;2023-07-02T01:31:45;98414.47;;;17.11;75.78
81155;BME280;70631;50.436;7.826;2023-07-02T01:34:12;98413.22;;;17.07;75.57
81155;BME280;70631;50.436;7.826;2023-07-02T01:36:37;98413.63;;;17.04;75.80
81155;BME280;70631;50.436;7.826;2023-07-02T01:39:03;98414.66;;;17.03;76.03
81155;BME280;70631;50.436;7.826;2023-07-02T01:41:28;98411.78;;;17.05;75.33
81155;BME280;70631;50.436;7.826;2023-07-02T01:43:54;98413.44;;;17.06;75.69
81155;BME280;70631;50.436;7.826;2023-07-02T01:46:20;98417.78;;;17.07;75.49
81155;BME280;70631;50.436;7.826;2023-07-02T01:48:45;98422.94;;;17.08;75.64
81155;BME280;70631;50.436;7.826;2023-07-02T01:51:10;98423.78;;;17.09;75.39
81155;BME280;70631;50.436;7.826;2023-07-02T01:53:36;98425.66;;;17.08;75.30
81155;BME280;70631;50.436;7.826;2023-07-02T01:56:01;98427.50;;;17.08;75.71
81155;BME280;70631;50.436;7.826;2023-07-02T01:58:26;98435.78;;;17.06;75.31
81155;BME280;70631;50.436;7.826;2023-07-02T02:00:52;98428.13;;;17.03;75.84
81155;BME280;70631;50.436;7.826;2023-07-02T02:03:18;98427.28;;;17.03;75.91
81155;BME280;70631;50.436;7.826;2023-07-02T02:05:43;98433.09;;;17.00;74.98
81155;BME280;70631;50.436;7.826;2023-07-02T02:08:09;98437.22;;;16.96;75.13
81155;BME280;70631;50.436;7.826;2023-07-02T02:10:34;98435.13;;;16.91;75.37
81155;BME280;70631;50.436;7.826;2023-07-02T02:12:59;98436.34;;;16.89;75.23
81155;BME280;70631;50.436;7.826;2023-07-02T02:15:24;98438.41;;;16.87;74.79
81155;BME280;70631;50.436;7.826;2023-07-02T02:17:50;98442.34;;;16.84;74.65
81155;BME280;70631;50.436;7.826;2023-07-02T02:20:16;98446.28;;;16.82;74.69
81155;BME280;70631;50.436;7.826;2023-07-02T02:22:41;98446.88;;;16.77;74.33
81155;BME280;70631;50.436;7.826;2023-07-02T02:25:07;98451.00;;;16.73;74.19
81155;BME280;70631;50.436;7.826;2023-07-02T02:27:32;98449.09;;;16.67;74.20
81155;BME280;70631;50.436;7.826;2023-07-02T02:29:58;98450.28;;;16.58;73.83
81155;BME280;70631;50.436;7.826;2023-07-02T02:32:23;98441.56;;;16.49;73.99
81155;BME280;70631;50.436;7.826;2023-07-02T02:34:49;98447.53;;;16.44;74.29
81155;BME280;70631;50.436;7.826;2023-07-02T02:37:14;98442.78;;;16.46;74.33
81155;BME280;70631;50.436;7.826;2023-07-02T02:39:39;98442.34;;;16.43;73.88
81155;BME280;70631;50.436;7.826;2023-07-02T02:42:05;98445.22;;;16.35;73.81
81155;BME280;70631;50.436;7.826;2023-07-02T02:44:30;98445.41;;;16.33;73.76
81155;BME280;70631;50.436;7.826;2023-07-02T02:46:57;98440.22;;;16.32;73.67
81155;BME280;70631;50.436;7.826;2023-07-02T02:49:22;98437.13;;;16.28;73.72
81155;BME280;70631;50.436;7.826;2023-07-02T02:51:47;98441.41;;;16.23;73.45
81155;BME280;70631;50.436;7.826;2023-07-02T02:54:13;98444.69;;;16.18;73.32
81155;BME280;70631;50.436;7.826;2023-07-02T02:56:38;98448.81;;;16.14;73.27
81155;BME280;70631;50.436;7.826;2023-07-02T02:59:04;98440.91;;;16.06;73.03
81155;BME280;70631;50.436;7.826;2023-07-02T03:01:29;98449.50;;;15.95;73.68
81155;BME280;70631;50.436;7.826;2023-07-02T03:03:57;98451.72;;;15.84;73.66
81155;BME280;70631;50.436;7.826;2023-07-02T03:06:22;98443.16;;;15.74;73.16
81155;BME280;70631;50.436;7.826;2023-07-02T03:08:48;98446.63;;;15.68;73.82
81155;BME280;70631;50.436;7.826;2023-07-02T03:11:13;98441.84;;;15.64;73.50
81155;BME280;70631;50.436;7.826;2023-07-02T03:13:38;98455.16;;;15.57;73.84
81155;BME280;70631;50.436;7.826;2023-07-02T03:16:04;98449.34;;;15.53;74.36
81155;BME280;70631;50.436;7.826;2023-07-02T03:18:29;98451.19;;;15.53;73.96
81155;BME280;70631;50.436;7.826;2023-07-02T03:20:54;98460.91;;;15.54;73.72
81155;BME280;70631;50.436;7.826;2023-07-02T03:23:20;98456.38;;;15.54;73.74
81155;BME280;70631;50.436;7.826;2023-07-02T03:25:45;98458.63;;;15.51;73.68
81155;BME280;70631;50.436;7.826;2023-07-02T03:28:10;98457.34;;;15.47;73.42
81155;BME280;70631;50.436;7.826;2023-07-02T03:30:35;98451.94;;;15.40;73.70
81155;BME280;70631;50.436;7.826;2023-07-02T03:33:01;98458.03;;;15.34;74.16
81155;BME280;70631;50.436;7.826;2023-07-02T03:35:26;98456.19;;;15.35;73.80
81155;BME280;70631;50.436;7.826;2023-07-02T03:37:51;98459.72;;;15.35;73.46
81155;BME280;70631;50.436;7.826;2023-07-02T03:40:16;98457.03;;;15.35;73.32
81155;BME280;70631;50.436;7.826;2023-07-02T03:42:43;98457.41;;;15.32;73.70
81155;BME280;70631;50.436;7.826;2023-07-02T03:45:08;98445.66;;;15.33;73.35
81155;BME280;70631;50.436;7.826;2023-07-02T03:47:34;98459.72;;;15.35;73.32
81155;BME280;70631;50.436;7.826;2023-07-02T03:49:59;98463.03;;;15.37;72.89
81155;BME280;70631;50.436;7.826;2023-07-02T03:52:24;98465.50;;;15.39;73.43
81155;BME280;70631;50.436;7.826;2023-07-02T03:54:50;98458.13;;;15.41;73.10
81155;BME280;70631;50.436;7.826;2023-07-02T03:57:15;98458.56;;;15.44;72.98
81155;BME280;70631;50.436;7.826;2023-07-02T03:59:40;98466.25;;;15.47;73.14
81155;BME280;70631;50.436;7.826;2023-07-02T04:02:06;98471.41;;;15.49;72.69
81155;BME280;70631;50.436;7.826;2023-07-02T04:04:31;98471.03;;;15.52;72.65
81155;BME280;70631;50.436;7.826;2023-07-02T04:06:56;98470.63;;;15.55;72.56
81155;BME280;70631;50.436;7.826;2023-07-02T04:09:21;98477.84;;;15.54;72.46
81155;BME280;70631;50.436;7.826;2023-07-02T04:11:47;98479.72;;;15.54;72.47
81155;BME280;70631;50.436;7.826;2023-07-02T04:14:12;98488.03;;;15.59;72.36
81155;BME280;70631;50.436;7.826;2023-07-02T04:16:37;98487.50;;;15.64;72.73
81155;BME280;70631;50.436;7.826;2023-07-02T04:19:02;98499.91;;;15.65;72.13
81155;BME280;70631;50.436;7.826;2023-07-02T04:21:28;98498.47;;;15.69;71.88
81155;BME280;70631;50.436;7.826;2023-07-02T04:23:53;98500.78;;;15.72;71.61
81155;BME280;70631;50.436;7.826;2023-07-02T04:26:18;98508.44;;;15.75;71.83
81155;BME280;70631;50.436;7.826;2023-07-02T04:28:43;98516.31;;;15.76;71.73
81155;BME280;70631;50.436;7.826;2023-07-02T04:31:09;98510.53;;;15.79;71.60
81155;BME280;70631;50.436;7.826;2023-07-02T04:33:34;98509.78;;;15.85;71.54
81155;BME280;70631;50.436;7.826;2023-07-02T04:36:02;98516.63;;;15.88;71.40
81155;BME280;70631;50.436;7.826;2023-07-02T04:38:27;98519.75;;;15.92;71.26
81155;BME280;70631;50.436;7.826;2023-07-02T04:40:53;98521.03;;;15.96;71.02
81155;BME280;70631;50.436;7.826;2023-07-02T04:43:18;98522.72;;;16.03;71.07
81155;BME280;70631;50.436;7.826;2023-07-02T04:45:44;98517.41;;;16.10;70.83
81155;BME280;70631;50.436;7.826;2023-07-02T04:48:09;98514.13;;;16.14;70.85
81155;BME280;70631;50.436;7.826;2023-07-02T04:50:34;98525.31;;;16.18;70.48
81155;BME280;70631;50.436;7.826;2023-07-02T04:53:00;98519.56;;;16.21;70.33
81155;BME280;70631;50.436;7.826;2023-07-02T04:55:25;98539.06;;;16.30;70.31
81155;BME280;70631;50.436;7.826;2023-07-02T04:57:50;98522.97;;;16.36;70.39
81155;BME280;70631;50.436;7.826;2023-07-02T05:00:16;98531.16;;;16.49;70.34
81155;BME280;70631;50.436;7.826;2023-07-02T05:02:41;98535.72;;;16.56;70.10
81155;BME280;70631;50.436;7.826;2023-07-02T05:05:07;98537.81;;;16.60;69.71
81155;BME280;70631;50.436;7.826;2023-07-02T05:07:32;98534.09;;;16.61;69.43
81155;BME280;70631;50.436;7.826;2023-07-02T05:09:58;98548.34;;;16.55;69.66
81155;BME280;70631;50.436;7.826;2023-07-02T05:12:23;98543.16;;;16.54;70.29
81155;BME280;70631;50.436;7.826;2023-07-02T05:14:49;98541.50;;;16.53;69.58
81155;BME280;70631;50.436;7.826;2023-07-02T05:17:14;98550.81;;;16.57;69.67
81155;BME280;70631;50.436;7.826;2023-07-02T05:19:40;98551.31;;;16.67;69.27
81155;BME280;70631;50.436;7.826;2023-07-02T05:22:06;98554.28;;;16.72;69.56
81155;BME280;70631;50.436;7.826;2023-07-02T05:24:31;98552.84;;;16.76;69.25
81155;BME280;70631;50.436;7.826;2023-07-02T05:26:56;98555.53;;;16.76;69.48
81155;BME280;70631;50.436;7.826;2023-07-02T05:29:22;98553.91;;;16.82;69.46
81155;BME280;70631;50.436;7.826;2023-07-02T05:31:47;98554.75;;;16.89;69.26
81155;BME280;70631;50.436;7.826;2023-07-02T05:34:12;98552.31;;;16.94;69.67
81155;BME280;70631;50.436;7.826;2023-07-02T05:36:38;98563.09;;;17.00;68.95
81155;BME280;70631;50.436;7.826;2023-07-02T05:39:03;98560.63;;;17.05;68.77
81155;BME280;70631;50.436;7.826;2023-07-02T05:41:28;98559.59;;;17.06;69.12
81155;BME280;70631;50.436;7.826;2023-07-02T05:43:57;98558.56;;;17.07;68.95
81155;BME280;70631;50.436;7.826;2023-07-02T05:46:22;98563.94;;;17.07;69.26
81155;BME280;70631;50.436;7.826;2023-07-02T05:48:47;98560.22;;;17.08;68.71
81155;BME280;70631;50.436;7.826;2023-07-02T05:51:13;98560.22;;;17.08;69.00
81155;BME280;70631;50.436;7.826;2023-07-02T05:53:38;98569.56;;;17.13;68.97
81155;BME280;70631;50.436;7.826;2023-07-02T05:56:03;98571.88;;;17.16;68.52
81155;BME280;70631;50.436;7.826;2023-07-02T05:58:28;98588.25;;;17.21;69.18
81155;BME280;70631;50.436;7.826;2023-07-02T06:00:55;98579.75;;;17.17;68.45
81155;BME280;70631;50.436;7.826;2023-07-02T06:03:20;98585.97;;;17.18;68.69
81155;BME280;70631;50.436;7.826;2023-07-02T06:05:48;98588.47;;;17.26;68.33
81155;BME280;70631;50.436;7.826;2023-07-02T06:08:18;98585.16;;;17.30;68.38
81155;BME280;70631;50.436;7.826;2023-07-02T06:10:45;98589.78;;;17.43;68.49
81155;BME280;70631;50.436;7.826;2023-07-02T06:13:11;98584.41;;;17.56;67.87
81155;BME280;70631;50.436;7.826;2023-07-02T06:15:36;98581.56;;;17.64;67.92
81155;BME280;70631;50.436;7.826;2023-07-02T06:18:02;98585.31;;;17.77;67.11
81155;BME280;70631;50.436;7.826;2023-07-02T06:20:27;98585.78;;;17.87;67.19
81155;BME280;70631;50.436;7.826;2023-07-02T06:22:52;98581.03;;;18.09;66.78
81155;BME280;70631;50.436;7.826;2023-07-02T06:25:18;98585.78;;;18.40;65.94
81155;BME280;70631;50.436;7.826;2023-07-02T06:27:43;98595.72;;;18.92;64.73
81155;BME280;70631;50.436;7.826;2023-07-02T06:30:08;98591.34;;;19.49;63.81
81155;BME280;70631;50.436;7.826;2023-07-02T06:32:33;98584.22;;;19.68;62.87
81155;BME280;70631;50.436;7.826;2023-07-02T06:34:59;98583.47;;;19.54;63.49
81155;BME280;70631;50.436;7.826;2023-07-02T06:37:24;98592.66;;;19.40;63.25
81155;BME280;70631;50.436;7.826;2023-07-02T06:39:49;98596.44;;;19.32;63.08
81155;BME280;70631;50.436;7.826;2023-07-02T06:42:15;98599.97;;;19.26;63.28
81155;BME280;70631;50.436;7.826;2023-07-02T06:44:40;98608.06;;;19.26;63.11
81155;BME280;70631;50.436;7.826;2023-07-02T06:47:06;98613.09;;;19.16;63.40
81155;BME280;70631;50.436;7.826;2023-07-02T06:49:31;98612.47;;;19.07;63.32
81155;BME280;70631;50.436;7.826;2023-07-02T06:51:56;98608.13;;;19.06;63.39
81155;BME280;70631;50.436;7.826;2023-07-02T06:54:22;98616.44;;;19.05;63.13
81155;BME280;70631;50.436;7.826;2023-07-02T06:56:47;98621.84;;;19.05;63.16
81155;BME280;70631;50.436;7.826;2023-07-02T06:59:18;98626.44;;;18.98;63.42
81155;BME280;70631;50.436;7.826;2023-07-02T07:01:43;98628.09;;;18.99;63.08
81155;BME280;70631;50.436;7.826;2023-07-02T07:04:09;98634.53;;;18.98;63.55
81155;BME280;70631;50.436;7.826;2023-07-02T07:06:34;98631.84;;;18.98;63.30
81155;BME280;70631;50.436;7.826;2023-07-02T07:08:59;98638.25;;;19.10;62.43
81155;BME280;70631;50.436;7.826;2023-07-02T07:11:24;98630.72;;;19.25;62.45
81155;BME280;70631;50.436;7.826;2023-07-02T07:13:50;98635.03;;;19.39;62.47
81155;BME280;70631;50.436;7.826;2023-07-02T07:16:15;98632.72;;;19.94;61.01
81155;BME280;70631;50.436;7.826;2023-07-02T07:18:40;98622.59;;;20.71;59.51
81155;BME280;70631;50.436;7.826;2023-07-02T07:21:05;98625.41;;;22.34;56.33
81155;BME280;70631;50.436;7.826;2023-07-02T07:23:31;98623.91;;;22.62;55.46
81155;BME280;70631;50.436;7.826;2023-07-02T07:25:56;98629.47;;;23.13;53.27
81155;BME280;70631;50.436;7.826;2023-07-02T07:28:21;98632.81;;;23.67;51.43
81155;BME280;70631;50.436;7.826;2023-07-02T07:30:46;98624.25;;;25.00;49.38
81155;BME280;70631;50.436;7.826;2023-07-02T07:33:12;98621.28;;;25.23;48.81
81155;BME280;70631;50.436;7.826;2023-07-02T07:35:37;98615.56;;;26.17;46.59
81155;BME280;70631;50.436;7.826;2023-07-02T07:38:02;98622.72;;;27.24;46.08
81155;BME280;70631;50.436;7.826;2023-07-02T07:40:28;98614.06;;;28.56;41.96
81155;BME280;70631;50.436;7.826;2023-07-02T07:42:54;98611.59;;;28.54;41.91
81155;BME280;70631;50.436;7.826;2023-07-02T07:45:19;98627.22;;;28.39;41.43
81155;BME280;70631;50.436;7.826;2023-07-02T07:47:44;98623.66;;;28.94;39.89
81155;BME280;70631;50.436;7.826;2023-07-02T07:50:09;98619.09;;;27.66;40.96
81155;BME280;70631;50.436;7.826;2023-07-02T07:52:38;98625.72;;;27.23;42.31
81155;BME280;70631;50.436;7.826;2023-07-02T07:55:05;98621.81;;;26.71;43.09
81155;BME280;70631;50.436;7.826;2023-07-02T07:57:31;98621.44;;;26.95;42.87
81155;BME280;70631;50.436;7.826;2023-07-02T07:59:56;98619.25;;;26.60;43.10
81155;BME280;70631;50.436;7.826;2023-07-02T08:02:22;98624.06;;;26.20;42.61
81155;BME280;70631;50.436;7.826;2023-07-02T08:04:48;98623.31;;;25.54;45.23
81155;BME280;70631;50.436;7.826;2023-07-02T08:07:13;98628.09;;;25.42;45.90
81155;BME280;70631;50.436;7.826;2023-07-02T08:09:39;98635.00;;;25.28;46.11
81155;BME280;70631;50.436;7.826;2023-07-02T08:12:04;98630.75;;;25.37;46.09
81155;BME280;70631;50.436;7.826;2023-07-02T08:14:29;98628.78;;;25.76;45.59
81155;BME280;70631;50.436;7.826;2023-07-02T08:16:55;98641.44;;;25.61;46.50
81155;BME280;70631;50.436;7.826;2023-07-02T08:19:20;98644.94;;;26.32;44.66
81155;BME280;70631;50.436;7.826;2023-07-02T08:21:46;98635.94;;;26.04;44.88
81155;BME280;70631;50.436;7.826;2023-07-02T08:24:11;98642.75;;;26.29;43.82
81155;BME280;70631;50.436;7.826;2023-07-02T08:26:38;98636.31;;;27.09;43.54
81155;BME280;70631;50.436;7.826;2023-07-02T08:29:03;98639.69;;;26.52;43.36
81155;BME280;70631;50.436;7.826;2023-07-02T08:31:28;98641.03;;;27.24;41.72
81155;BME280;70631;50.436;7.826;2023-07-02T08:33:53;98632.03;;;26.49;42.86
81155;BME280;70631;50.436;7.826;2023-07-02T08:36:19;98636.41;;;27.24;42.58
81155;BME280;70631;50.436;7.826;2023-07-02T08:38:44;98639.53;;;27.01;43.00
81155;BME280;70631;50.436;7.826;2023-07-02T08:41:09;98645.91;;;26.20;44.08
81155;BME280;70631;50.436;7.826;2023-07-02T08:43:35;98633.56;;;25.42;44.51
81155;BME280;70631;50.436;7.826;2023-07-02T08:46:01;98641.72;;;24.70;46.86
81155;BME280;70631;50.436;7.826;2023-07-02T08:48:26;98649.00;;;24.31;47.46
81155;BME280;70631;50.436;7.826;2023-07-02T08:50:54;98655.16;;;23.98;48.51
81155;BME280;70631;50.436;7.826;2023-07-02T08:53:19;98643.88;;;23.77;49.46
81155;BME280;70631;50.436;7.826;2023-07-02T08:55:44;98651.38;;;23.59;49.29
81155;BME280;70631;50.436;7.826;2023-07-02T08:58:10;98648.69;;;23.47;49.42
81155;BME280;70631;50.436;7.826;2023-07-02T09:00:35;98656.88;;;23.24;50.01
81155;BME280;70631;50.436;7.826;2023-07-02T09:03:15;98664.31;;;23.16;50.84
81155;BME280;70631;50.436;7.826;2023-07-02T09:05:52;98662.66;;;23.15;50.43
81155;BME280;70631;50.436;7.826;2023-07-02T09:08:28;98655.84;;;23.01;50.72
81155;BME280;70631;50.436;7.826;2023-07-02T09:10:54;98662.16;;;23.94;49.89
81155;BME280;70631;50.436;7.826;2023-07-02T09:13:19;98651.44;;;25.55;47.12
81155;BME280;70631;50.436;7.826;2023-07-02T09:15:45;98657.72;;;26.48;45.03
81155;BME280;70631;50.436;7.826;2023-07-02T09:20:44;98659.84;;;28.35;40.39
81155;BME280;70631;50.436;7.826;2023-07-02T09:23:10;98655.84;;;29.78;37.84
81155;BME280;70631;50.436;7.826;2023-07-02T09:25:40;98646.13;;;31.38;35.54
81155;BME280;70631;50.436;7.826;2023-07-02T09:28:21;98653.09;;;32.72;34.78
81155;BME280;70631;50.436;7.826;2023-07-02T09:30:54;98648.72;;;33.63;32.45
81155;BME280;70631;50.436;7.826;2023-07-02T09:33:21;98638.69;;;34.31;29.99
81155;BME280;70631;50.436;7.826;2023-07-02T09:35:46;98637.94;;;34.84;29.10
81155;BME280;70631;50.436;7.826;2023-07-02T09:38:13;98641.78;;;35.28;28.67
81155;BME280;70631;50.436;7.826;2023-07-02T09:40:46;98640.44;;;35.16;28.62
81155;BME280;70631;50.436;7.826;2023-07-02T09:43:12;98633.00;;;34.00;30.23
81155;BME280;70631;50.436;7.826;2023-07-02T09:45:42;98642.81;;;32.77;30.63
81155;BME280;70631;50.436;7.826;2023-07-02T09:48:09;98641.50;;;31.81;32.44
81155;BME280;70631;50.436;7.826;2023-07-02T09:50:36;98643.38;;;31.38;32.29
81155;BME280;70631;50.436;7.826;2023-07-02T09:53:03;98634.50;;;32.96;29.86
81155;BME280;70631;50.436;7.826;2023-07-02T09:55:28;98626.25;;;33.10;30.29
81155;BME280;70631;50.436;7.826;2023-07-02T09:57:54;98640.31;;;32.62;31.83
81155;BME280;70631;50.436;7.826;2023-07-02T10:00:19;98637.69;;;31.77;32.06
81155;BME280;70631;50.436;7.826;2023-07-02T10:02:48;98635.72;;;31.06;32.47
81155;BME280;70631;50.436;7.826;2023-07-02T10:05:32;98650.81;;;29.96;34.16
81155;BME280;70631;50.436;7.826;2023-07-02T10:07:59;98641.38;;;29.42;35.17
81155;BME280;70631;50.436;7.826;2023-07-02T10:10:35;98660.38;;;28.83;35.75
81155;BME280;70631;50.436;7.826;2023-07-02T10:13:01;98651.63;;;28.25;36.64
81155;BME280;70631;50.436;7.826;2023-07-02T10:15:28;98655.59;;;27.97;37.35
81155;BME280;70631;50.436;7.826;2023-07-02T10:18:03;98644.91;;;27.95;37.32
81155;BME280;70631;50.436;7.826;2023-07-02T10:20:39;98650.00;;;27.61;37.87
81155;BME280;70631;50.436;7.826;2023-07-02T10:23:07;98651.19;;;27.28;37.97
81155;BME280;70631;50.436;7.826;2023-07-02T10:25:34;98647.59;;;26.86;38.64
81155;BME280;70631;50.436;7.826;2023-07-02T10:28:01;98652.19;;;26.75;39.03
81155;BME280;70631;50.436;7.826;2023-07-02T10:30:39;98645.16;;;26.52;39.42
81155;BME280;70631;50.436;7.826;2023-07-02T10:33:16;98648.59;;;26.69;39.62
81155;BME280;70631;50.436;7.826;2023-07-02T10:35:43;98645.88;;;28.67;37.19
81155;BME280;70631;50.436;7.826;2023-07-02T10:38:20;98630.22;;;28.78;36.29
81155;BME280;70631;50.436;7.826;2023-07-02T10:40:46;98653.25;;;28.41;36.83
81155;BME280;70631;50.436;7.826;2023-07-02T10:43:11;98641.53;;;29.81;34.54
81155;BME280;70631;50.436;7.826;2023-07-02T10:45:37;98640.63;;;30.80;33.94
81155;BME280;70631;50.436;7.826;2023-07-02T10:48:03;98643.19;;;31.77;32.32
81155;BME280;70631;50.436;7.826;2023-07-02T10:50:30;98649.38;;;31.63;32.15
81155;BME280;70631;50.436;7.826;2023-07-02T10:52:56;98651.19;;;31.97;31.73
81155;BME280;70631;50.436;7.826;2023-07-02T10:55:23;98648.00;;;32.46;30.50
81155;BME280;70631;50.436;7.826;2023-07-02T10:57:49;98642.69;;;31.75;31.76
81155;BME280;70631;50.436;7.826;2023-07-02T11:00:16;98646.88;;;31.43;31.51
81155;BME280;70631;50.436;7.826;2023-07-02T11:02:42;98658.16;;;30.89;32.79
81155;BME280;70631;50.436;7.826;2023-07-02T11:05:08;98645.00;;;31.86;30.45
81155;BME280;70631;50.436;7.826;2023-07-02T11:07:46;98649.09;;;32.83;29.43
81155;BME280;70631;50.436;7.826;2023-07-02T11:10:18;98654.25;;;32.52;29.46
81155;BME280;70631;50.436;7.826;2023-07-02T11:12:43;98646.91;;;31.86;29.90
81155;BME280;70631;50.436;7.826;2023-07-02T11:15:16;98645.13;;;31.28;31.00
81155;BME280;70631;50.436;7.826;2023-07-02T11:17:45;98657.91;;;30.85;31.98
81155;BME280;70631;50.436;7.826;2023-07-02T11:20:12;98658.75;;;30.47;32.54
81155;BME280;70631;50.436;7.826;2023-07-02T11:22:38;98655.72;;;29.99;32.96
81155;BME280;70631;50.436;7.826;2023-07-02T11:25:10;98660.25;;;29.69;33.85
81155;BME280;70631;50.436;7.826;2023-07-02T11:27:36;98659.31;;;29.14;34.29
81155;BME280;70631;50.436;7.826;2023-07-02T11:30:02;98659.84;;;29.01;33.72
81155;BME280;70631;50.436;7.826;2023-07-02T11:32:27;98657.13;;;28.76;34.74
81155;BME280;70631;50.436;7.826;2023-07-02T11:34:53;98653.56;;;28.96;34.66
81155;BME280;70631;50.436;7.826;2023-07-02T11:37:19;98656.28;;;29.01;34.44
81155;BME280;70631;50.436;7.826;2023-07-02T11:39:45;98654.38;;;29.01;35.09
81155;BME280;70631;50.436;7.826;2023-07-02T11:42:10;98651.06;;;29.14;34.79
81155;BME280;70631;50.436;7.826;2023-07-02T11:44:35;98642.28;;;29.12;33.26
81155;BME280;70631;50.436;7.826;2023-07-02T11:47:00;98642.31;;;28.97;33.06
81155;BME280;70631;50.436;7.826;2023-07-02T11:49:26;98642.28;;;28.82;33.17
81155;BME280;70631;50.436;7.826;2023-07-02T11:51:51;98653.00;;;28.58;33.42
81155;BME280;70631;50.436;7.826;2023-07-02T11:54:16;98650.00;;;28.54;32.71
81155;BME280;70631;50.436;7.826;2023-07-02T11:56:44;98652.16;;;28.37;32.52
81155;BME280;70631;50.436;7.826;2023-07-02T11:59:09;98662.78;;;28.13;33.18
81155;BME280;70631;50.436;7.826;2023-07-02T12:01:35;98662.66;;;27.73;34.24
81155;BME280;70631;50.436;7.826;2023-07-02T12:04:00;98667.00;;;27.16;36.26
81155;BME280;70631;50.436;7.826;2023-07-02T12:06:26;98660.72;;;27.16;36.56
81155;BME280;70631;50.436;7.826;2023-07-02T12:08:51;98669.38;;;27.07;36.88
81155;BME280;70631;50.436;7.826;2023-07-02T12:11:16;98665.16;;;26.90;36.84
81155;BME280;70631;50.436;7.826;2023-07-02T12:13:42;98668.63;;;26.80;37.40
81155;BME280;70631;50.436;7.826;2023-07-02T12:16:07;98669.41;;;26.75;37.60
81155;BME280;70631;50.436;7.826;2023-07-02T12:18:32;98670.13;;;26.66;37.95
81155;BME280;70631;50.436;7.826;2023-07-02T12:20:58;98683.88;;;26.44;37.98
81155;BME280;70631;50.436;7.826;2023-07-02T12:23:23;98684.16;;;26.20;38.75
81155;BME280;70631;50.436;7.826;2023-07-02T12:25:48;98686.63;;;26.22;39.15
81155;BME280;70631;50.436;7.826;2023-07-02T12:28:14;98688.03;;;26.46;38.55
81155;BME280;70631;50.436;7.826;2023-07-02T12:30:39;98681.50;;;26.53;38.51
81155;BME280;70631;50.436;7.826;2023-07-02T12:33:05;98676.72;;;26.38;38.22
81155;BME280;70631;50.436;7.826;2023-07-02T12:35:30;98684.47;;;26.24;38.18
81155;BME280;70631;50.436;7.826;2023-07-02T12:37:55;98675.13;;;26.20;39.11
81155;BME280;70631;50.436;7.826;2023-07-02T12:40:21;98681.09;;;26.39;38.55
81155;BME280;70631;50.436;7.826;2023-07-02T12:42:47;98679.03;;;26.51;38.04
81155;BME280;70631;50.436;7.826;2023-07-02T12:45:13;98672.13;;;26.43;38.07
81155;BME280;70631;50.436;7.826;2023-07-02T12:47:40;98673.28;;;26.47;38.50
81155;BME280;70631;50.436;7.826;2023-07-02T12:50:06;98675.47;;;26.51;37.52
81155;BME280;70631;50.436;7.826;2023-07-02T12:52:32;98674.66;;;26.50;37.47
81155;BME280;70631;50.436;7.826;2023-07-02T12:54:58;98681.47;;;26.47;38.26
81155;BME280;70631;50.436;7.826;2023-07-02T12:57:23;98683.84;;;26.39;37.84